Terminal Aerodrome Forecast
Issued by NWS

Home | Current Version | Previous Version | Text Only | Print | Product List | Glossary On
Versions: 1 2 3 4 5 6 7 8 9 10 11 12 13 14 15 16 17 18 19 20 21 22 23 24 25 26 27 28 29 30 31 32
429
FTUS45 KBOI 022321
TAFBKE
TAF
KBKE 022321Z 0300/0324 VRB03KT P6SM SCT100 OVC200
     FM030300 VRB04KT P6SM VCSH OVC050
      TEMPO 0306/0309 4SM -SHSN BR SCT015 BKN025
     FM030900 VRB03KT 2SM -SHSN BR OVC015=

USA.gov is the U.S. government's official web portal to all federal, state and local government web resources and services.